Terminal Aerodrome Forecast
Issued by NWS Flagstaff, AZ

Home | Current Version | Previous Version | Text Only | Print | Product List | Glossary On
Versions: 1 2 3 4 5 6 7 8 9 10 11 12 13 14 15
045
FTUS45 KFGZ 210541
TAFINW
TAF
KINW 210541Z 2106/2206 21010G20KT P6SM -RA SCT030 BKN040 OVC070
     FM211000 24012G22KT P6SM SCT020 OVC040
     FM211500 26010G20KT P6SM VCSH BKN025 OVC040
     FM220100 25010KT P6SM SCT050 SCT250=

USA.gov is the U.S. government's official web portal to all federal, state and local government web resources and services.